sensor_id;sensor_type;location;lat;lon;timestamp;pressure;altitude;pressure_sealevel;temperature;humidity
46506;BME280;32220;49.808;9.968;2023-04-29T00:02:24;98455.09;;;12.27;84.56
46506;BME280;32220;49.808;9.968;2023-04-29T00:04:53;98474.44;;;12.40;85.09
46506;BME280;32220;49.808;9.968;2023-04-29T00:07:21;98470.22;;;12.38;85.19
46506;BME280;32220;49.808;9.968;2023-04-29T00:09:49;98466.00;;;12.35;85.69
46506;BME280;32220;49.808;9.968;2023-04-29T00:12:16;98459.00;;;12.34;86.71
46506;BME280;32220;49.808;9.968;2023-04-29T00:14:44;98466.22;;;12.32;86.07
46506;BME280;32220;49.808;9.968;2023-04-29T00:17:12;98476.22;;;12.29;86.30
46506;BME280;32220;49.808;9.968;2023-04-29T00:19:39;98460.53;;;12.26;86.10
46506;BME280;32220;49.808;9.968;2023-04-29T00:22:09;98470.53;;;12.22;85.98
46506;BME280;32220;49.808;9.968;2023-04-29T00:24:36;98468.13;;;12.19;86.22
46506;BME280;32220;49.808;9.968;2023-04-29T00:27:04;98468.44;;;12.14;85.83
46506;BME280;32220;49.808;9.968;2023-04-29T00:29:32;98471.34;;;12.11;85.77
46506;BME280;32220;49.808;9.968;2023-04-29T00:32:00;98431.16;;;11.81;85.62
46506;BME280;32220;49.808;9.968;2023-04-29T00:34:27;98471.91;;;12.04;86.01
46506;BME280;32220;49.808;9.968;2023-04-29T00:36:55;98472.13;;;12.01;85.94
46506;BME280;32220;49.808;9.968;2023-04-29T00:39:24;98462.22;;;11.92;86.48
46506;BME280;32220;49.808;9.968;2023-04-29T00:41:52;98476.22;;;11.94;85.81
46506;BME280;32220;49.808;9.968;2023-04-29T00:44:20;98473.78;;;11.91;86.01
46506;BME280;32220;49.808;9.968;2023-04-29T00:46:47;98457.91;;;11.78;85.72
46506;BME280;32220;49.808;9.968;2023-04-29T00:49:16;98464.81;;;11.80;85.72
46506;BME280;32220;49.808;9.968;2023-04-29T00:51:44;98470.63;;;11.85;85.91
46506;BME280;32220;49.808;9.968;2023-04-29T00:54:12;98470.13;;;11.80;85.80
46506;BME280;32220;49.808;9.968;2023-04-29T00:56:44;98476.28;;;11.81;85.72
46506;BME280;32220;49.808;9.968;2023-04-29T00:59:12;98478.06;;;11.80;85.70
46506;BME280;32220;49.808;9.968;2023-04-29T01:01:42;98477.13;;;11.81;86.12
46506;BME280;32220;49.808;9.968;2023-04-29T01:04:10;98474.34;;;11.83;85.79
46506;BME280;32220;49.808;9.968;2023-04-29T01:06:45;98483.16;;;11.83;86.00
46506;BME280;32220;49.808;9.968;2023-04-29T01:09:26;98453.69;;;11.75;86.36
46506;BME280;32220;49.808;9.968;2023-04-29T01:12:07;98466.28;;;11.84;86.51
46506;BME280;32220;49.808;9.968;2023-04-29T01:14:38;98475.19;;;11.83;86.52
46506;BME280;32220;49.808;9.968;2023-04-29T01:17:10;98467.25;;;11.83;86.58
46506;BME280;32220;49.808;9.968;2023-04-29T01:19:43;98464.81;;;11.80;86.58
46506;BME280;32220;49.808;9.968;2023-04-29T01:22:13;98461.41;;;11.78;86.74
46506;BME280;32220;49.808;9.968;2023-04-29T01:24:44;98468.84;;;11.73;86.60
46506;BME280;32220;49.808;9.968;2023-04-29T01:27:19;98462.19;;;11.68;87.09
46506;BME280;32220;49.808;9.968;2023-04-29T01:29:53;98460.81;;;11.62;86.84
46506;BME280;32220;49.808;9.968;2023-04-29T01:32:28;98453.00;;;11.61;87.09
46506;BME280;32220;49.808;9.968;2023-04-29T01:35:05;98476.06;;;11.71;87.16
46506;BME280;32220;49.808;9.968;2023-04-29T01:37:40;98480.53;;;11.71;87.52
46506;BME280;32220;49.808;9.968;2023-04-29T01:40:19;98477.97;;;11.69;86.90
46506;BME280;32220;49.808;9.968;2023-04-29T01:43:13;98471.19;;;11.65;87.00
46506;BME280;32220;49.808;9.968;2023-04-29T01:45:45;98481.59;;;11.68;86.92
46506;BME280;32220;49.808;9.968;2023-04-29T01:48:15;98486.69;;;11.71;86.64
46506;BME280;32220;49.808;9.968;2023-04-29T01:50:44;98470.97;;;11.68;86.81
46506;BME280;32220;49.808;9.968;2023-04-29T01:53:13;98482.63;;;11.78;86.81
46506;BME280;32220;49.808;9.968;2023-04-29T01:55:42;98483.38;;;11.80;86.87
46506;BME280;32220;49.808;9.968;2023-04-29T01:58:16;98467.69;;;11.77;86.71
46506;BME280;32220;49.808;9.968;2023-04-29T02:00:55;98452.72;;;11.76;86.77
46506;BME280;32220;49.808;9.968;2023-04-29T02:03:24;98467.97;;;11.85;86.48
46506;BME280;32220;49.808;9.968;2023-04-29T02:05:54;98477.28;;;11.91;86.40
46506;BME280;32220;49.808;9.968;2023-04-29T02:08:23;98488.75;;;11.92;86.47
46506;BME280;32220;49.808;9.968;2023-04-29T02:10:54;98486.31;;;11.88;85.87
46506;BME280;32220;49.808;9.968;2023-04-29T02:13:48;98485.81;;;11.83;86.13
46506;BME280;32220;49.808;9.968;2023-04-29T02:16:16;98488.91;;;11.77;85.75
46506;BME280;32220;49.808;9.968;2023-04-29T02:18:55;98492.72;;;11.73;86.34
46506;BME280;32220;49.808;9.968;2023-04-29T02:21:23;98500.69;;;11.73;86.01
46506;BME280;32220;49.808;9.968;2023-04-29T02:23:52;98465.91;;;11.65;86.08
46506;BME280;32220;49.808;9.968;2023-04-29T02:26:24;98487.09;;;11.78;86.20
46506;BME280;32220;49.808;9.968;2023-04-29T02:28:54;98483.50;;;11.66;86.06
46506;BME280;32220;49.808;9.968;2023-04-29T02:31:22;98496.56;;;11.69;86.61
46506;BME280;32220;49.808;9.968;2023-04-29T02:33:50;98490.97;;;11.61;87.00
46506;BME280;32220;49.808;9.968;2023-04-29T02:36:18;98492.88;;;11.59;86.59
46506;BME280;32220;49.808;9.968;2023-04-29T02:38:45;98493.09;;;11.56;86.98
46506;BME280;32220;49.808;9.968;2023-04-29T02:41:16;98493.31;;;11.53;87.17
46506;BME280;32220;49.808;9.968;2023-04-29T02:43:45;98495.66;;;11.45;87.25
46506;BME280;32220;49.808;9.968;2023-04-29T02:46:14;98493.13;;;11.43;86.67
46506;BME280;32220;49.808;9.968;2023-04-29T02:48:41;98496.72;;;11.42;86.89
46506;BME280;32220;49.808;9.968;2023-04-29T02:51:09;98474.81;;;11.28;86.68
46506;BME280;32220;49.808;9.968;2023-04-29T02:53:37;98495.16;;;11.40;86.51
46506;BME280;32220;49.808;9.968;2023-04-29T02:56:04;98497.91;;;11.38;86.63
46506;BME280;32220;49.808;9.968;2023-04-29T02:58:32;98496.94;;;11.39;86.57
46506;BME280;32220;49.808;9.968;2023-04-29T03:01:01;98495.88;;;11.42;86.52
46506;BME280;32220;49.808;9.968;2023-04-29T03:03:29;98500.97;;;11.45;86.26
46506;BME280;32220;49.808;9.968;2023-04-29T03:05:57;98487.81;;;11.43;86.30
46506;BME280;32220;49.808;9.968;2023-04-29T03:08:25;98492.34;;;11.54;86.10
46506;BME280;32220;49.808;9.968;2023-04-29T03:10:53;98496.47;;;11.58;86.38
46506;BME280;32220;49.808;9.968;2023-04-29T03:13:20;98501.34;;;11.64;86.76
46506;BME280;32220;49.808;9.968;2023-04-29T03:15:49;98498.13;;;11.72;86.16
46506;BME280;32220;49.808;9.968;2023-04-29T03:18:18;98497.72;;;11.78;86.30
46506;BME280;32220;49.808;9.968;2023-04-29T03:20:47;98501.16;;;11.91;87.01
46506;BME280;32220;49.808;9.968;2023-04-29T03:23:14;98495.06;;;12.02;87.38
46506;BME280;32220;49.808;9.968;2023-04-29T03:25:42;98498.97;;;12.09;87.15
46506;BME280;32220;49.808;9.968;2023-04-29T03:28:09;98494.16;;;12.14;87.48
46506;BME280;32220;49.808;9.968;2023-04-29T03:30:38;98498.44;;;12.28;87.58
46506;BME280;32220;49.808;9.968;2023-04-29T03:33:05;98500.38;;;12.37;88.44
46506;BME280;32220;49.808;9.968;2023-04-29T03:35:34;98504.28;;;12.44;88.50
46506;BME280;32220;49.808;9.968;2023-04-29T03:38:22;98500.44;;;12.48;88.38
46506;BME280;32220;49.808;9.968;2023-04-29T03:40:52;98492.06;;;12.41;87.72
46506;BME280;32220;49.808;9.968;2023-04-29T03:43:20;98503.56;;;12.53;87.77
46506;BME280;32220;49.808;9.968;2023-04-29T03:45:48;98506.97;;;12.55;87.34
46506;BME280;32220;49.808;9.968;2023-04-29T03:48:19;98502.38;;;12.57;87.22
46506;BME280;32220;49.808;9.968;2023-04-29T03:50:48;98513.63;;;12.61;86.81
46506;BME280;32220;49.808;9.968;2023-04-29T03:53:16;98500.22;;;12.62;86.67
46506;BME280;32220;49.808;9.968;2023-04-29T03:55:43;98492.38;;;12.61;86.92
46506;BME280;32220;49.808;9.968;2023-04-29T03:58:11;98507.72;;;12.68;86.94
46506;BME280;32220;49.808;9.968;2023-04-29T04:00:39;98508.22;;;12.73;86.78
46506;BME280;32220;49.808;9.968;2023-04-29T04:03:12;98496.13;;;12.69;86.37
46506;BME280;32220;49.808;9.968;2023-04-29T04:05:39;98514.75;;;12.80;86.68
46506;BME280;32220;49.808;9.968;2023-04-29T04:08:12;98511.03;;;12.83;86.50
46506;BME280;32220;49.808;9.968;2023-04-29T04:10:58;98517.06;;;12.85;86.86
46506;BME280;32220;49.808;9.968;2023-04-29T04:13:36;98507.75;;;12.79;87.71
46506;BME280;32220;49.808;9.968;2023-04-29T04:16:04;98518.50;;;12.89;87.86
46506;BME280;32220;49.808;9.968;2023-04-29T04:18:32;98526.97;;;12.94;87.77
46506;BME280;32220;49.808;9.968;2023-04-29T04:21:04;98523.38;;;12.95;87.80
46506;BME280;32220;49.808;9.968;2023-04-29T04:23:34;98512.72;;;12.95;87.58
46506;BME280;32220;49.808;9.968;2023-04-29T04:26:02;98532.31;;;13.05;87.76
46506;BME280;32220;49.808;9.968;2023-04-29T04:28:53;98527.63;;;13.09;87.76
46506;BME280;32220;49.808;9.968;2023-04-29T04:31:30;98543.94;;;13.15;87.70
46506;BME280;32220;49.808;9.968;2023-04-29T04:33:57;98517.56;;;13.01;87.50
46506;BME280;32220;49.808;9.968;2023-04-29T04:36:25;98540.56;;;13.24;87.08
46506;BME280;32220;49.808;9.968;2023-04-29T04:38:55;98544.69;;;13.28;86.89
46506;BME280;32220;49.808;9.968;2023-04-29T04:41:23;98547.22;;;13.30;87.05
46506;BME280;32220;49.808;9.968;2023-04-29T04:43:52;98506.47;;;13.07;86.96
46506;BME280;32220;49.808;9.968;2023-04-29T04:46:40;98547.56;;;13.37;87.06
46506;BME280;32220;49.808;9.968;2023-04-29T04:49:13;98554.13;;;13.44;87.42
46506;BME280;32220;49.808;9.968;2023-04-29T04:51:48;98553.63;;;13.50;87.03
46506;BME280;32220;49.808;9.968;2023-04-29T04:54:18;98561.97;;;13.56;86.82
46506;BME280;32220;49.808;9.968;2023-04-29T04:56:49;98559.19;;;13.58;86.17
46506;BME280;32220;49.808;9.968;2023-04-29T04:59:17;98563.66;;;13.69;86.25
46506;BME280;32220;49.808;9.968;2023-04-29T05:01:45;98572.00;;;13.75;86.03
46506;BME280;32220;49.808;9.968;2023-04-29T05:04:13;98544.19;;;13.68;85.60
46506;BME280;32220;49.808;9.968;2023-04-29T05:06:41;98574.41;;;13.89;85.34
46506;BME280;32220;49.808;9.968;2023-04-29T05:09:09;98575.63;;;13.96;85.55
46506;BME280;32220;49.808;9.968;2023-04-29T05:11:39;98573.28;;;14.03;85.14
46506;BME280;32220;49.808;9.968;2023-04-29T05:14:11;98585.97;;;14.11;84.65
46506;BME280;32220;49.808;9.968;2023-04-29T05:16:38;98583.78;;;14.16;84.50
46506;BME280;32220;49.808;9.968;2023-04-29T05:19:06;98583.16;;;14.23;84.43
46506;BME280;32220;49.808;9.968;2023-04-29T05:21:37;98585.44;;;14.28;84.22
46506;BME280;32220;49.808;9.968;2023-04-29T05:24:07;98586.63;;;14.35;84.36
46506;BME280;32220;49.808;9.968;2023-04-29T05:26:35;98581.31;;;14.35;84.11
46506;BME280;32220;49.808;9.968;2023-04-29T05:29:06;98588.47;;;14.46;84.15
46506;BME280;32220;49.808;9.968;2023-04-29T05:31:44;98594.25;;;14.51;83.82
46506;BME280;32220;49.808;9.968;2023-04-29T05:34:11;98585.28;;;14.52;83.66
46506;BME280;32220;49.808;9.968;2023-04-29T05:36:39;98593.34;;;14.61;83.22
46506;BME280;32220;49.808;9.968;2023-04-29T05:39:06;98608.13;;;14.65;83.09
46506;BME280;32220;49.808;9.968;2023-04-29T05:41:34;98604.13;;;14.71;82.90
46506;BME280;32220;49.808;9.968;2023-04-29T05:44:09;98602.75;;;14.77;82.89
46506;BME280;32220;49.808;9.968;2023-04-29T05:46:37;98609.22;;;14.84;82.77
46506;BME280;32220;49.808;9.968;2023-04-29T05:49:04;98597.34;;;14.88;82.26
46506;BME280;32220;49.808;9.968;2023-04-29T05:51:32;98599.63;;;14.92;81.96
46506;BME280;32220;49.808;9.968;2023-04-29T05:53:59;98613.09;;;15.12;81.72
46506;BME280;32220;49.808;9.968;2023-04-29T05:56:30;98619.22;;;15.23;81.49
46506;BME280;32220;49.808;9.968;2023-04-29T05:58:59;98624.47;;;15.34;81.07
46506;BME280;32220;49.808;9.968;2023-04-29T06:01:28;98627.06;;;15.45;80.91
46506;BME280;32220;49.808;9.968;2023-04-29T06:03:57;98622.19;;;15.51;80.35
46506;BME280;32220;49.808;9.968;2023-04-29T06:06:34;98626.31;;;15.55;80.06
46506;BME280;32220;49.808;9.968;2023-04-29T06:09:17;98628.91;;;15.66;79.84
46506;BME280;32220;49.808;9.968;2023-04-29T06:11:45;98635.84;;;15.78;79.70
46506;BME280;32220;49.808;9.968;2023-04-29T06:14:13;98641.22;;;15.88;79.26
46506;BME280;32220;49.808;9.968;2023-04-29T06:16:42;98646.19;;;16.02;78.79
46506;BME280;32220;49.808;9.968;2023-04-29T06:19:10;98633.44;;;16.05;76.70
46506;BME280;32220;49.808;9.968;2023-04-29T06:21:38;98655.44;;;16.38;76.45
46506;BME280;32220;49.808;9.968;2023-04-29T06:24:06;98659.84;;;16.58;76.44
46506;BME280;32220;49.808;9.968;2023-04-29T06:26:34;98668.06;;;16.66;74.56
46506;BME280;32220;49.808;9.968;2023-04-29T06:29:02;98666.38;;;16.65;73.36
46506;BME280;32220;49.808;9.968;2023-04-29T06:31:29;98655.22;;;16.70;73.48
46506;BME280;32220;49.808;9.968;2023-04-29T06:34:03;98677.34;;;16.81;72.36
46506;BME280;32220;49.808;9.968;2023-04-29T06:36:32;98679.75;;;16.94;72.81
46506;BME280;32220;49.808;9.968;2023-04-29T06:39:00;98687.50;;;17.07;72.13
46506;BME280;32220;49.808;9.968;2023-04-29T06:41:50;98695.41;;;17.18;71.12
46506;BME280;32220;49.808;9.968;2023-04-29T06:44:39;98697.09;;;17.29;70.58
46506;BME280;32220;49.808;9.968;2023-04-29T06:47:24;98707.22;;;17.54;69.79
46506;BME280;32220;49.808;9.968;2023-04-29T06:50:06;98707.47;;;17.80;67.77
46506;BME280;32220;49.808;9.968;2023-04-29T06:52:34;98704.44;;;18.02;67.50
46506;BME280;32220;49.808;9.968;2023-04-29T06:55:03;98708.78;;;18.13;67.51
46506;BME280;32220;49.808;9.968;2023-04-29T06:57:32;98712.28;;;18.13;66.37
46506;BME280;32220;49.808;9.968;2023-04-29T06:59:59;98705.38;;;18.11;66.99
46506;BME280;32220;49.808;9.968;2023-04-29T07:02:27;98709.06;;;18.10;66.05
46506;BME280;32220;49.808;9.968;2023-04-29T07:04:55;98703.78;;;18.27;65.40
46506;BME280;32220;49.808;9.968;2023-04-29T07:07:24;98724.75;;;18.42;62.60
46506;BME280;32220;49.808;9.968;2023-04-29T07:09:53;98732.84;;;18.59;62.13
46506;BME280;32220;49.808;9.968;2023-04-29T07:12:20;98721.06;;;18.70;61.84
46506;BME280;32220;49.808;9.968;2023-04-29T07:14:48;98740.09;;;18.77;61.32
46506;BME280;32220;49.808;9.968;2023-04-29T07:17:16;98742.44;;;18.89;61.00
46506;BME280;32220;49.808;9.968;2023-04-29T07:19:45;98718.13;;;19.09;61.20
46506;BME280;32220;49.808;9.968;2023-04-29T07:22:13;98708.38;;;19.08;59.82
46506;BME280;32220;49.808;9.968;2023-04-29T07:24:42;98748.88;;;19.32;59.13
46506;BME280;32220;49.808;9.968;2023-04-29T07:27:09;98753.16;;;19.52;58.14
46506;BME280;32220;49.808;9.968;2023-04-29T07:29:37;98750.81;;;19.57;57.74
46506;BME280;32220;49.808;9.968;2023-04-29T07:32:05;98768.09;;;19.55;57.40
46506;BME280;32220;49.808;9.968;2023-04-29T07:34:35;98774.63;;;19.52;56.31
46506;BME280;32220;49.808;9.968;2023-04-29T07:37:03;98780.75;;;19.62;56.69
46506;BME280;32220;49.808;9.968;2023-04-29T07:39:31;98772.84;;;20.04;55.86
46506;BME280;32220;49.808;9.968;2023-04-29T07:42:03;98783.53;;;20.74;54.13
46506;BME280;32220;49.808;9.968;2023-04-29T07:44:31;98772.63;;;21.26;52.94
46506;BME280;32220;49.808;9.968;2023-04-29T07:46:58;98792.56;;;22.06;50.70
46506;BME280;32220;49.808;9.968;2023-04-29T07:49:26;98810.41;;;22.95;48.80
46506;BME280;32220;49.808;9.968;2023-04-29T07:51:54;98828.28;;;23.26;47.33
46506;BME280;32220;49.808;9.968;2023-04-29T07:54:21;98827.00;;;23.14;47.57
46506;BME280;32220;49.808;9.968;2023-04-29T07:56:49;98834.19;;;22.99;47.17
46506;BME280;32220;49.808;9.968;2023-04-29T07:59:19;98841.78;;;23.35;44.82
46506;BME280;32220;49.808;9.968;2023-04-29T08:01:47;98850.84;;;23.42;44.65
46506;BME280;32220;49.808;9.968;2023-04-29T08:04:15;98862.66;;;23.49;43.39
46506;BME280;32220;49.808;9.968;2023-04-29T08:06:49;98859.56;;;23.60;43.43
46506;BME280;32220;49.808;9.968;2023-04-29T08:09:17;98857.66;;;23.91;43.44
46506;BME280;32220;49.808;9.968;2023-04-29T08:11:44;98870.66;;;23.73;42.45
46506;BME280;32220;49.808;9.968;2023-04-29T08:14:12;98865.72;;;23.46;42.98
46506;BME280;32220;49.808;9.968;2023-04-29T08:16:41;98874.00;;;23.05;42.99
46506;BME280;32220;49.808;9.968;2023-04-29T08:19:09;98874.06;;;22.81;43.84
46506;BME280;32220;49.808;9.968;2023-04-29T08:21:37;98854.84;;;22.76;45.31
46506;BME280;32220;49.808;9.968;2023-04-29T08:24:04;98854.34;;;22.72;44.71
46506;BME280;32220;49.808;9.968;2023-04-29T08:26:32;98865.88;;;23.05;43.91
46506;BME280;32220;49.808;9.968;2023-04-29T08:28:59;98859.91;;;22.87;43.93
46506;BME280;32220;49.808;9.968;2023-04-29T08:31:27;98874.72;;;23.69;43.64
46506;BME280;32220;49.808;9.968;2023-04-29T08:33:56;98883.13;;;23.74;42.00
46506;BME280;32220;49.808;9.968;2023-04-29T08:36:24;98889.38;;;23.75;42.35
46506;BME280;32220;49.808;9.968;2023-04-29T08:38:53;98893.72;;;23.61;42.13
46506;BME280;32220;49.808;9.968;2023-04-29T08:41:21;98872.06;;;23.61;43.03
46506;BME280;32220;49.808;9.968;2023-04-29T08:43:50;98895.38;;;23.62;41.97
46506;BME280;32220;49.808;9.968;2023-04-29T08:46:18;98889.25;;;23.68;42.10
46506;BME280;32220;49.808;9.968;2023-04-29T08:48:46;98898.16;;;23.99;42.23
46506;BME280;32220;49.808;9.968;2023-04-29T08:51:16;98891.63;;;24.40;42.15
46506;BME280;32220;49.808;9.968;2023-04-29T08:53:43;98904.53;;;24.52;42.03
46506;BME280;32220;49.808;9.968;2023-04-29T08:56:15;98900.59;;;24.40;41.97
46506;BME280;32220;49.808;9.968;2023-04-29T08:58:46;98878.44;;;23.91;40.95
46506;BME280;32220;49.808;9.968;2023-04-29T09:01:14;98894.16;;;23.64;41.34
46506;BME280;32220;49.808;9.968;2023-04-29T09:03:48;98896.97;;;23.40;42.49
46506;BME280;32220;49.808;9.968;2023-04-29T09:06:19;98890.53;;;23.02;42.56
46506;BME280;32220;49.808;9.968;2023-04-29T09:08:47;98904.78;;;22.80;43.24
46506;BME280;32220;49.808;9.968;2023-04-29T09:11:15;98910.38;;;22.54;42.97
46506;BME280;32220;49.808;9.968;2023-04-29T09:13:44;98904.16;;;22.37;43.31
46506;BME280;32220;49.808;9.968;2023-04-29T09:16:12;98904.84;;;22.23;43.03
46506;BME280;32220;49.808;9.968;2023-04-29T09:18:50;98898.25;;;22.34;43.03
46506;BME280;32220;49.808;9.968;2023-04-29T09:21:21;98911.13;;;23.03;42.07
46506;BME280;32220;49.808;9.968;2023-04-29T09:23:51;98917.19;;;24.37;42.26
46506;BME280;32220;49.808;9.968;2023-04-29T09:26:19;98931.31;;;24.85;40.29
46506;BME280;32220;49.808;9.968;2023-04-29T09:29:05;98936.31;;;24.58;40.36
46506;BME280;32220;49.808;9.968;2023-04-29T09:31:36;98933.41;;;24.37;39.77
46506;BME280;32220;49.808;9.968;2023-04-29T09:34:06;98932.69;;;23.97;40.87
46506;BME280;32220;49.808;9.968;2023-04-29T09:36:41;98928.56;;;23.48;41.67
46506;BME280;32220;49.808;9.968;2023-04-29T09:39:12;98907.84;;;22.85;42.40
46506;BME280;32220;49.808;9.968;2023-04-29T09:41:56;98918.81;;;22.43;43.52
46506;BME280;32220;49.808;9.968;2023-04-29T09:44:26;98879.81;;;21.80;44.15
46506;BME280;32220;49.808;9.968;2023-04-29T09:46:55;98912.16;;;21.72;45.23
46506;BME280;32220;49.808;9.968;2023-04-29T09:49:27;98909.88;;;21.43;45.69
46506;BME280;32220;49.808;9.968;2023-04-29T09:51:56;98923.53;;;21.16;45.61
46506;BME280;32220;49.808;9.968;2023-04-29T09:54:25;98927.47;;;20.96;45.33
46506;BME280;32220;49.808;9.968;2023-04-29T09:56:55;98927.06;;;20.83;45.96
46506;BME280;32220;49.808;9.968;2023-04-29T09:59:23;98919.84;;;20.83;46.96
46506;BME280;32220;49.808;9.968;2023-04-29T10:01:53;98917.78;;;20.77;46.35
46506;BME280;32220;49.808;9.968;2023-04-29T10:04:22;98931.50;;;20.66;47.02
46506;BME280;32220;49.808;9.968;2023-04-29T10:06:53;98923.69;;;20.55;46.39
46506;BME280;32220;49.808;9.968;2023-04-29T10:09:22;98926.94;;;20.40;46.22
46506;BME280;32220;49.808;9.968;2023-04-29T10:11:51;98923.94;;;20.26;47.00
46506;BME280;32220;49.808;9.968;2023-04-29T10:14:21;98929.72;;;20.13;47.03
46506;BME280;32220;49.808;9.968;2023-04-29T10:16:53;98914.28;;;20.15;47.54
46506;BME280;32220;49.808;9.968;2023-04-29T10:19:27;98918.50;;;20.35;47.19
46506;BME280;32220;49.808;9.968;2023-04-29T10:22:06;98914.50;;;20.65;47.08
46506;BME280;32220;49.808;9.968;2023-04-29T10:24:36;98925.38;;;20.82;46.57
46506;BME280;32220;49.808;9.968;2023-04-29T10:27:05;98926.31;;;20.98;46.21
46506;BME280;32220;49.808;9.968;2023-04-29T10:29:35;98931.59;;;21.08;44.97
46506;BME280;32220;49.808;9.968;2023-04-29T10:32:06;98918.81;;;21.10;44.62
46506;BME280;32220;49.808;9.968;2023-04-29T10:34:36;98910.88;;;21.08;45.15
46506;BME280;32220;49.808;9.968;2023-04-29T10:37:07;98931.16;;;21.21;45.75
46506;BME280;32220;49.808;9.968;2023-04-29T10:39:41;98937.81;;;21.08;44.67
46506;BME280;32220;49.808;9.968;2023-04-29T10:42:16;98909.22;;;20.82;44.77
46506;BME280;32220;49.808;9.968;2023-04-29T10:48:14;98930.97;;;20.88;45.45
46506;BME280;32220;49.808;9.968;2023-04-29T10:51:00;98938.34;;;21.12;45.29
46506;BME280;32220;49.808;9.968;2023-04-29T10:54:00;98940.19;;;21.45;44.91
46506;BME280;32220;49.808;9.968;2023-04-29T10:56:50;98946.16;;;21.65;43.35
46506;BME280;32220;49.808;9.968;2023-04-29T10:59:20;98938.78;;;21.75;43.75
46506;BME280;32220;49.808;9.968;2023-04-29T11:01:49;98928.50;;;21.71;44.37
46506;BME280;32220;49.808;9.968;2023-04-29T11:04:18;98943.16;;;21.76;44.59
46506;BME280;32220;49.808;9.968;2023-04-29T11:06:47;98954.78;;;21.77;44.45
46506;BME280;32220;49.808;9.968;2023-04-29T11:09:20;98943.81;;;21.62;44.47
46506;BME280;32220;49.808;9.968;2023-04-29T11:11:56;98948.13;;;21.47;45.11
46506;BME280;32220;49.808;9.968;2023-04-29T11:14:28;98904.09;;;20.96;45.18
46506;BME280;32220;49.808;9.968;2023-04-29T11:16:58;98932.88;;;21.22;45.73
46506;BME280;32220;49.808;9.968;2023-04-29T11:19:30;98939.03;;;21.48;45.32
46506;BME280;32220;49.808;9.968;2023-04-29T11:22:13;98946.44;;;22.04;44.57
46506;BME280;32220;49.808;9.968;2023-04-29T11:24:53;98954.56;;;22.77;43.37
46506;BME280;32220;49.808;9.968;2023-04-29T11:27:23;98947.56;;;23.15;42.26
46506;BME280;32220;49.808;9.968;2023-04-29T11:29:52;98964.19;;;23.51;41.56
46506;BME280;32220;49.808;9.968;2023-04-29T11:32:26;98969.41;;;23.61;40.88
46506;BME280;32220;49.808;9.968;2023-04-29T11:34:54;98977.31;;;23.71;40.14
46506;BME280;32220;49.808;9.968;2023-04-29T11:37:23;98985.25;;;23.64;39.78
46506;BME280;32220;49.808;9.968;2023-04-29T11:39:58;98979.41;;;23.52;40.67
46506;BME280;32220;49.808;9.968;2023-04-29T11:42:26;98975.56;;;23.31;40.80
46506;BME280;32220;49.808;9.968;2023-04-29T11:44:54;98994.56;;;22.98;41.15
46506;BME280;32220;49.808;9.968;2023-04-29T11:47:26;98980.38;;;22.64;41.81
46506;BME280;32220;49.808;9.968;2023-04-29T11:50:02;98980.91;;;22.35;42.25
46506;BME280;32220;49.808;9.968;2023-04-29T11:52:30;98989.72;;;21.95;43.18
46506;BME280;32220;49.808;9.968;2023-04-29T11:54:59;98982.09;;;21.74;44.10
46506;BME280;32220;49.808;9.968;2023-04-29T11:57:27;98988.56;;;21.55;43.84
46506;BME280;32220;49.808;9.968;2023-04-29T11:59:56;98986.84;;;21.38;44.70
46506;BME280;32220;49.808;9.968;2023-04-29T12:02:28;98974.28;;;21.21;44.62
46506;BME280;32220;49.808;9.968;2023-04-29T12:04:56;98971.94;;;21.00;45.35
46506;BME280;32220;49.808;9.968;2023-04-29T12:07:26;98973.72;;;20.91;46.42
46506;BME280;32220;49.808;9.968;2023-04-29T12:09:54;98975.38;;;20.84;45.98
46506;BME280;32220;49.808;9.968;2023-04-29T12:12:24;98963.13;;;20.64;46.31
46506;BME280;32220;49.808;9.968;2023-04-29T12:14:53;98978.94;;;20.67;46.81
46506;BME280;32220;49.808;9.968;2023-04-29T12:17:20;98977.56;;;20.63;46.90
46506;BME280;32220;49.808;9.968;2023-04-29T12:19:49;98975.50;;;20.57;47.33
46506;BME280;32220;49.808;9.968;2023-04-29T12:22:18;98976.13;;;20.51;47.23
46506;BME280;32220;49.808;9.968;2023-04-29T12:24:46;98972.91;;;20.47;47.18
46506;BME280;32220;49.808;9.968;2023-04-29T12:27:15;98972.06;;;20.47;47.15
46506;BME280;32220;49.808;9.968;2023-04-29T12:29:45;98974.66;;;20.56;47.02
46506;BME280;32220;49.808;9.968;2023-04-29T12:32:16;98982.06;;;20.80;46.12
46506;BME280;32220;49.808;9.968;2023-04-29T12:34:44;98984.81;;;21.14;46.06
46506;BME280;32220;49.808;9.968;2023-04-29T12:37:14;98986.88;;;21.54;45.42
46506;BME280;32220;49.808;9.968;2023-04-29T12:39:41;98978.47;;;21.99;44.95
46506;BME280;32220;49.808;9.968;2023-04-29T12:42:14;98995.22;;;22.43;43.79
46506;BME280;32220;49.808;9.968;2023-04-29T12:44:45;99002.66;;;22.74;43.11
46506;BME280;32220;49.808;9.968;2023-04-29T12:47:14;98999.31;;;22.80;42.73
46506;BME280;32220;49.808;9.968;2023-04-29T12:49:43;98990.69;;;22.68;42.92
46506;BME280;32220;49.808;9.968;2023-04-29T12:52:12;98991.19;;;22.47;42.47
46506;BME280;32220;49.808;9.968;2023-04-29T12:54:40;99011.41;;;22.35;42.44
46506;BME280;32220;49.808;9.968;2023-04-29T12:57:09;99005.13;;;22.10;43.23
46506;BME280;32220;49.808;9.968;2023-04-29T12:59:37;99008.22;;;21.90;43.24
46506;BME280;32220;49.808;9.968;2023-04-29T13:02:07;99009.69;;;21.68;43.38
46506;BME280;32220;49.808;9.968;2023-04-29T13:04:35;99007.09;;;21.50;44.22
46506;BME280;32220;49.808;9.968;2023-04-29T13:07:02;99000.63;;;21.35;44.54
46506;BME280;32220;49.808;9.968;2023-04-29T13:09:30;98997.25;;;21.15;44.61
46506;BME280;32220;49.808;9.968;2023-04-29T13:11:59;98993.78;;;20.97;45.28
46506;BME280;32220;49.808;9.968;2023-04-29T13:14:27;98985.28;;;20.84;45.52
46506;BME280;32220;49.808;9.968;2023-04-29T13:16:55;98997.09;;;20.91;45.71
46506;BME280;32220;49.808;9.968;2023-04-29T13:19:25;98999.47;;;20.94;45.73
46506;BME280;32220;49.808;9.968;2023-04-29T13:21:52;98987.03;;;20.93;46.10